Algowood — VCTD — position and weather

sailwx.info

Track history (hours):
 
Tides and Currents Weather Stations Pressure Air Temp Water Temp Dewpoint Dewpoint Depression Visibility Wind Speed Wind Dir Waves Ship Positions

Algowood

Last reported at 2014-Sep-01 02:34 UTC. Time now 2014-Sep-01 23:47 UTC.
Position N 43°16' W 079°14'.

Length 223 m; draft 8.1 m.

Type: Cargo ship. MMSI: 316001802.

Date/timePositionNaut miles runAvg speedWind from/ knotsBaromVisibWave heightAir tempDewpointWater temp
2014-Sep-01 02:34N 43°16' W 079°14'8 0.3
2014-Aug-31 02:07N 43°08' W 079°12'0 0.3
2014-Aug-31 01:32N 43°08' W 079°12'1 0.7
2014-Aug-31 00:28N 43°07' W 079°12'245 5.1
2014-Aug-29 00:33N 45°43' W 083°37'1611.6
2014-Aug-28 23:12N 45°55' W 083°51'810.3
2014-Aug-28 22:22N 46°03' W 083°56'  
2014-Aug-25 09:14N 47°09' W 085°41'911.7
2014-Aug-25 08:26N 47°04' W 085°29'1011.6
2014-Aug-25 07:33N 46°59' W 085°16'1211.7
2014-Aug-25 06:33N 46°53' W 085°02'1111.2
2014-Aug-25 05:33N 46°46' W 084°49'1211.8
2014-Aug-25 04:31N 46°35' W 084°42'1010.9
2014-Aug-25 03:33N 46°27' W 084°31'28 5.4
2014-Aug-24 22:26N 46°09' W 084°01'10 9.4
2014-Aug-24 21:22N 46°00' W 083°53'265 5.9
2014-Aug-23 00:15N 43°06' W 079°12'1 1.6
2014-Aug-22 23:33N 43°07' W 079°12'1 0.6
2014-Aug-22 22:33N 43°08' W 079°12'0 0.2
2014-Aug-22 21:33N 43°08' W 079°12'1 1.1
2014-Aug-22 20:31N 43°09' W 079°12'2 2.4
2014-Aug-22 19:33N 43°12' W 079°12'  
Track history (hours):
 
Tides and Currents Weather Stations Pressure Air Temp Water Temp Dewpoint Dewpoint Depression Visibility Wind Speed Wind Dir Waves Ship Positions

Algowood

Last reported at 2014-Sep-01 02:34 UTC. Time now 2014-Sep-01 23:47 UTC.
Position N 43°16' W 079°14'.

Length 223 m; draft 8.1 m.

Type: Cargo ship. MMSI: 316001802.

Date/timePositionNaut miles runAvg speedWind from/ knotsBaromVisibWave heightAir tempDewpointWater temp
2014-Sep-01 02:34N 43°16' W 079°14'8 0.3
2014-Aug-31 02:07N 43°08' W 079°12'0 0.3
2014-Aug-31 01:32N 43°08' W 079°12'1 0.7
2014-Aug-31 00:28N 43°07' W 079°12'245 5.1
2014-Aug-29 00:33N 45°43' W 083°37'1611.6
2014-Aug-28 23:12N 45°55' W 083°51'810.3
2014-Aug-28 22:22N 46°03' W 083°56'  
2014-Aug-25 09:14N 47°09' W 085°41'911.7
2014-Aug-25 08:26N 47°04' W 085°29'1011.6
2014-Aug-25 07:33N 46°59' W 085°16'1211.7
2014-Aug-25 06:33N 46°53' W 085°02'1111.2
2014-Aug-25 05:33N 46°46' W 084°49'1211.8
2014-Aug-25 04:31N 46°35' W 084°42'1010.9
2014-Aug-25 03:33N 46°27' W 084°31'28 5.4
2014-Aug-24 22:26N 46°09' W 084°01'10 9.4
2014-Aug-24 21:22N 46°00' W 083°53'265 5.9
2014-Aug-23 00:15N 43°06' W 079°12'1 1.6
2014-Aug-22 23:33N 43°07' W 079°12'1 0.6
2014-Aug-22 22:33N 43°08' W 079°12'0 0.2
2014-Aug-22 21:33N 43°08' W 079°12'1 1.1
2014-Aug-22 20:31N 43°09' W 079°12'2 2.4
2014-Aug-22 19:33N 43°12' W 079°12'  

Dump ship's entire track history